sensor_id;sensor_type;location;lat;lon;timestamp;pressure;altitude;pressure_sealevel;temperature;humidity
44453;BME280;30155;52.164;21.236;2023-03-14T00:03:36;98993.17;;;8.61;73.28
44453;BME280;30155;52.164;21.236;2023-03-14T00:08:29;98980.25;;;8.50;73.09
44453;BME280;30155;52.164;21.236;2023-03-14T00:13:22;98972.98;;;8.40;73.31
44453;BME280;30155;52.164;21.236;2023-03-14T00:18:15;98970.92;;;8.32;73.13
44453;BME280;30155;52.164;21.236;2023-03-14T00:23:08;98959.04;;;8.25;73.16
44453;BME280;30155;52.164;21.236;2023-03-14T00:28:01;98955.92;;;8.18;73.37
44453;BME280;30155;52.164;21.236;2023-03-14T00:32:53;98954.05;;;8.13;73.34
44453;BME280;30155;52.164;21.236;2023-03-14T00:37:46;98942.16;;;8.08;73.29
44453;BME280;30155;52.164;21.236;2023-03-14T00:42:39;98938.35;;;8.05;73.23
44453;BME280;30155;52.164;21.236;2023-03-14T00:47:32;98929.90;;;7.99;73.21
44453;BME280;30155;52.164;21.236;2023-03-14T00:52:25;98925.95;;;7.94;72.84
44453;BME280;30155;52.164;21.236;2023-03-14T00:57:18;98909.04;;;7.90;72.88
44453;BME280;30155;52.164;21.236;2023-03-14T01:02:11;98891.28;;;7.84;73.08
44453;BME280;30155;52.164;21.236;2023-03-14T01:07:03;98888.01;;;7.76;72.90
44453;BME280;30155;52.164;21.236;2023-03-14T01:11:56;98888.20;;;7.69;73.08
44453;BME280;30155;52.164;21.236;2023-03-14T01:16:49;98876.11;;;7.63;72.82
44453;BME280;30155;52.164;21.236;2023-03-14T01:21:44;98870.44;;;7.65;72.71
44453;BME280;30155;52.164;21.236;2023-03-14T01:26:36;98870.77;;;7.62;72.51
44453;BME280;30155;52.164;21.236;2023-03-14T01:31:30;98867.84;;;7.60;72.68
44453;BME280;30155;52.164;21.236;2023-03-14T01:36:23;98871.99;;;7.58;72.32
44453;BME280;30155;52.164;21.236;2023-03-14T01:41:20;98870.26;;;7.58;72.50
44453;BME280;30155;52.164;21.236;2023-03-14T01:51:36;98867.68;;;7.44;72.33
44453;BME280;30155;52.164;21.236;2023-03-14T01:56:31;98869.58;;;7.38;72.27
44453;BME280;30155;52.164;21.236;2023-03-14T02:01:24;98871.45;;;7.31;72.23
44453;BME280;30155;52.164;21.236;2023-03-14T02:06:23;98873.70;;;7.22;72.28
44453;BME280;30155;52.164;21.236;2023-03-14T02:11:18;98858.70;;;7.14;72.20
44453;BME280;30155;52.164;21.236;2023-03-14T02:16:24;98863.85;;;7.05;72.33
44453;BME280;30155;52.164;21.236;2023-03-14T02:21:49;98852.65;;;6.97;72.29
44453;BME280;30155;52.164;21.236;2023-03-14T02:27:05;98848.49;;;6.86;72.35
44453;BME280;30155;52.164;21.236;2023-03-14T02:32:00;98848.13;;;6.74;72.41
44453;BME280;30155;52.164;21.236;2023-03-14T02:36:53;98837.43;;;6.65;72.49
44453;BME280;30155;52.164;21.236;2023-03-14T02:41:49;98819.31;;;6.53;72.36
44453;BME280;30155;52.164;21.236;2023-03-14T02:46:42;98809.12;;;6.43;72.49
44453;BME280;30155;52.164;21.236;2023-03-14T02:51:35;98792.75;;;6.35;72.68
44453;BME280;30155;52.164;21.236;2023-03-14T02:56:29;98789.29;;;6.30;72.49
44453;BME280;30155;52.164;21.236;2023-03-14T03:01:24;98790.66;;;6.29;72.41
44453;BME280;30155;52.164;21.236;2023-03-14T03:06:17;98797.20;;;6.29;72.24
44453;BME280;30155;52.164;21.236;2023-03-14T03:11:10;98797.05;;;6.34;72.16
44453;BME280;30155;52.164;21.236;2023-03-14T03:16:03;98788.30;;;6.39;72.12
44453;BME280;30155;52.164;21.236;2023-03-14T03:21:03;98794.14;;;6.37;71.91
44453;BME280;30155;52.164;21.236;2023-03-14T03:25:56;98793.63;;;6.35;71.60
44453;BME280;30155;52.164;21.236;2023-03-14T03:30:49;98796.88;;;6.32;71.84
44453;BME280;30155;52.164;21.236;2023-03-14T03:35:47;98787.91;;;6.29;71.83
44453;BME280;30155;52.164;21.236;2023-03-14T03:40:46;98766.92;;;6.26;71.62
44453;BME280;30155;52.164;21.236;2023-03-14T03:45:39;98765.19;;;6.24;71.55
44453;BME280;30155;52.164;21.236;2023-03-14T03:50:32;98777.04;;;6.19;71.50
44453;BME280;30155;52.164;21.236;2023-03-14T03:55:25;98771.70;;;6.19;71.76
44453;BME280;30155;52.164;21.236;2023-03-14T04:00:19;98759.67;;;6.20;71.60
44453;BME280;30155;52.164;21.236;2023-03-14T04:05:12;98761.23;;;6.24;71.67
44453;BME280;30155;52.164;21.236;2023-03-14T04:10:11;98760.40;;;6.29;71.41
44453;BME280;30155;52.164;21.236;2023-03-14T04:15:11;98756.63;;;6.33;71.47
44453;BME280;30155;52.164;21.236;2023-03-14T04:20:10;98752.33;;;6.35;71.33
44453;BME280;30155;52.164;21.236;2023-03-14T04:25:05;98759.02;;;6.31;71.34
44453;BME280;30155;52.164;21.236;2023-03-14T04:30:04;98763.30;;;6.26;71.35
44453;BME280;30155;52.164;21.236;2023-03-14T04:35:09;98774.30;;;6.22;71.36
44453;BME280;30155;52.164;21.236;2023-03-14T04:40:03;98770.33;;;6.14;71.46
44453;BME280;30155;52.164;21.236;2023-03-14T04:44:58;98776.48;;;6.06;71.39
44453;BME280;30155;52.164;21.236;2023-03-14T04:49:54;98774.74;;;6.04;71.48
44453;BME280;30155;52.164;21.236;2023-03-14T04:54:48;98769.93;;;6.01;71.57
44453;BME280;30155;52.164;21.236;2023-03-14T04:59:42;98747.41;;;6.00;71.55
44453;BME280;30155;52.164;21.236;2023-03-14T05:05:03;98735.36;;;6.04;71.42
44453;BME280;30155;52.164;21.236;2023-03-14T05:10:09;98726.60;;;6.08;71.57
44453;BME280;30155;52.164;21.236;2023-03-14T05:15:11;98723.53;;;6.15;71.40
44453;BME280;30155;52.164;21.236;2023-03-14T05:20:24;98720.98;;;6.25;71.29
44453;BME280;30155;52.164;21.236;2023-03-14T05:25:36;98694.33;;;6.37;71.04
44453;BME280;30155;52.164;21.236;2023-03-14T05:30:51;98679.20;;;6.46;71.07
44453;BME280;30155;52.164;21.236;2023-03-14T05:36:08;98697.09;;;6.50;70.83
44453;BME280;30155;52.164;21.236;2023-03-14T05:41:20;98703.14;;;6.57;70.83
44453;BME280;30155;52.164;21.236;2023-03-14T05:46:39;98701.07;;;6.68;70.38
44453;BME280;30155;52.164;21.236;2023-03-14T05:52:04;98684.73;;;6.73;70.25
44453;BME280;30155;52.164;21.236;2023-03-14T05:57:15;98672.66;;;6.73;70.20
44453;BME280;30155;52.164;21.236;2023-03-14T06:02:21;98669.39;;;6.73;70.28
44453;BME280;30155;52.164;21.236;2023-03-14T06:07:20;98654.75;;;6.78;70.11
44453;BME280;30155;52.164;21.236;2023-03-14T06:12:13;98642.52;;;6.83;70.00
44453;BME280;30155;52.164;21.236;2023-03-14T06:17:07;98635.80;;;6.94;69.71
44453;BME280;30155;52.164;21.236;2023-03-14T06:22:06;98634.55;;;7.09;69.79
44453;BME280;30155;52.164;21.236;2023-03-14T06:26:59;98630.84;;;7.44;69.38
44453;BME280;30155;52.164;21.236;2023-03-14T06:31:54;98619.58;;;7.87;68.74
44453;BME280;30155;52.164;21.236;2023-03-14T06:36:47;98618.33;;;8.23;67.50
44453;BME280;30155;52.164;21.236;2023-03-14T06:41:40;98617.16;;;8.42;67.50
44453;BME280;30155;52.164;21.236;2023-03-14T06:46:33;98607.92;;;8.55;66.88
44453;BME280;30155;52.164;21.236;2023-03-14T06:51:27;98606.08;;;8.67;67.00
44453;BME280;30155;52.164;21.236;2023-03-14T06:56:20;98604.11;;;8.95;66.69
44453;BME280;30155;52.164;21.236;2023-03-14T07:01:23;98605.05;;;9.20;66.54
44453;BME280;30155;52.164;21.236;2023-03-14T07:06:17;98605.34;;;9.39;66.03
44453;BME280;30155;52.164;21.236;2023-03-14T07:11:11;98598.45;;;9.64;65.59
44453;BME280;30155;52.164;21.236;2023-03-14T07:16:06;98603.40;;;9.95;65.04
44453;BME280;30155;52.164;21.236;2023-03-14T07:21:00;98598.83;;;10.12;65.03
44453;BME280;30155;52.164;21.236;2023-03-14T07:25:52;98602.48;;;10.35;64.91
44453;BME280;30155;52.164;21.236;2023-03-14T07:30:48;98601.77;;;10.46;64.34
44453;BME280;30155;52.164;21.236;2023-03-14T07:35:47;98578.59;;;10.56;63.88
44453;BME280;30155;52.164;21.236;2023-03-14T07:40:41;98595.05;;;10.65;64.18
44453;BME280;30155;52.164;21.236;2023-03-14T07:45:34;98609.97;;;11.12;63.65
44453;BME280;30155;52.164;21.236;2023-03-14T07:50:33;98610.99;;;11.57;62.85
44453;BME280;30155;52.164;21.236;2023-03-14T07:55:26;98598.98;;;13.18;61.55
44453;BME280;30155;52.164;21.236;2023-03-14T08:00:19;98593.83;;;16.62;56.59
44453;BME280;30155;52.164;21.236;2023-03-14T08:05:12;98591.84;;;17.12;56.35
44453;BME280;30155;52.164;21.236;2023-03-14T08:10:06;98585.26;;;19.42;53.89
44453;BME280;30155;52.164;21.236;2023-03-14T08:14:59;98589.39;;;19.79;53.26
44453;BME280;30155;52.164;21.236;2023-03-14T08:19:52;98588.30;;;21.09;50.60
44453;BME280;30155;52.164;21.236;2023-03-14T08:24:45;98590.35;;;22.22;48.38
44453;BME280;30155;52.164;21.236;2023-03-14T08:29:38;98585.83;;;22.69;47.11
44453;BME280;30155;52.164;21.236;2023-03-14T08:34:33;98581.52;;;22.81;46.58
44453;BME280;30155;52.164;21.236;2023-03-14T08:39:26;98584.21;;;22.43;45.08
44453;BME280;30155;52.164;21.236;2023-03-14T08:44:19;98594.77;;;21.36;47.51
44453;BME280;30155;52.164;21.236;2023-03-14T08:49:12;98599.95;;;20.17;47.01
44453;BME280;30155;52.164;21.236;2023-03-14T08:54:08;98601.45;;;19.24;47.11
44453;BME280;30155;52.164;21.236;2023-03-14T08:59:02;98603.43;;;19.23;46.97
44453;BME280;30155;52.164;21.236;2023-03-14T09:03:54;98589.86;;;18.83;47.10
44453;BME280;30155;52.164;21.236;2023-03-14T09:08:47;98584.32;;;18.92;47.47
44453;BME280;30155;52.164;21.236;2023-03-14T09:13:40;98579.50;;;19.17;47.78
44453;BME280;30155;52.164;21.236;2023-03-14T09:18:33;98578.39;;;19.48;47.76
44453;BME280;30155;52.164;21.236;2023-03-14T09:23:26;98574.73;;;19.34;47.14
44453;BME280;30155;52.164;21.236;2023-03-14T09:28:20;98561.77;;;19.70;45.56
44453;BME280;30155;52.164;21.236;2023-03-14T09:33:13;98555.33;;;19.46;46.34
44453;BME280;30155;52.164;21.236;2023-03-14T09:38:06;98542.31;;;18.71;46.60
44453;BME280;30155;52.164;21.236;2023-03-14T09:42:59;98539.55;;;18.11;47.38
44453;BME280;30155;52.164;21.236;2023-03-14T09:47:53;98542.61;;;18.23;47.34
44453;BME280;30155;52.164;21.236;2023-03-14T09:52:55;98520.19;;;19.62;45.63
44453;BME280;30155;52.164;21.236;2023-03-14T09:57:54;98514.89;;;20.61;45.28
44453;BME280;30155;52.164;21.236;2023-03-14T10:08:05;98488.51;;;22.09;42.60
44453;BME280;30155;52.164;21.236;2023-03-14T10:13:20;98490.95;;;22.07;42.31
44453;BME280;30155;52.164;21.236;2023-03-14T10:18:15;98494.96;;;23.15;40.55
44453;BME280;30155;52.164;21.236;2023-03-14T10:28:05;98502.77;;;21.52;42.50
44453;BME280;30155;52.164;21.236;2023-03-14T10:33:11;98479.62;;;21.88;41.87
44453;BME280;30155;52.164;21.236;2023-03-14T10:38:05;98471.13;;;21.53;41.18
44453;BME280;30155;52.164;21.236;2023-03-14T10:42:59;98468.54;;;20.48;42.50
44453;BME280;30155;52.164;21.236;2023-03-14T10:47:53;98473.33;;;20.26;43.26
44453;BME280;30155;52.164;21.236;2023-03-14T10:52:47;98477.59;;;19.76;43.67
44453;BME280;30155;52.164;21.236;2023-03-14T10:57:53;98475.38;;;18.87;43.85
44453;BME280;30155;52.164;21.236;2023-03-14T11:03:08;98474.71;;;18.10;44.71
44453;BME280;30155;52.164;21.236;2023-03-14T11:09:00;98481.34;;;17.33;45.97
44453;BME280;30155;52.164;21.236;2023-03-14T11:13:30;98494.48;;;16.69;46.82
44453;BME280;30155;52.164;21.236;2023-03-14T11:23:33;98498.85;;;15.85;47.71
44453;BME280;30155;52.164;21.236;2023-03-14T11:28:39;98505.17;;;15.56;48.46
44453;BME280;30155;52.164;21.236;2023-03-14T11:33:38;98513.10;;;15.54;48.86
44453;BME280;30155;52.164;21.236;2023-03-14T11:38:40;98506.77;;;15.79;48.45
44453;BME280;30155;52.164;21.236;2023-03-14T11:43:39;98487.20;;;16.17;48.29
44453;BME280;30155;52.164;21.236;2023-03-14T11:48:42;98470.48;;;18.22;46.32
44453;BME280;30155;52.164;21.236;2023-03-14T11:53:50;98459.94;;;19.93;44.36
44453;BME280;30155;52.164;21.236;2023-03-14T11:58:54;98462.91;;;19.84;44.99
44453;BME280;30155;52.164;21.236;2023-03-14T12:04:00;98470.23;;;18.87;45.34
44453;BME280;30155;52.164;21.236;2023-03-14T12:09:02;98473.45;;;17.96;45.89
44453;BME280;30155;52.164;21.236;2023-03-14T12:13:55;98492.84;;;17.22;46.52
44453;BME280;30155;52.164;21.236;2023-03-14T12:18:49;98482.33;;;16.63;47.44
44453;BME280;30155;52.164;21.236;2023-03-14T12:23:44;98481.47;;;16.38;47.92
44453;BME280;30155;52.164;21.236;2023-03-14T12:28:49;98476.29;;;16.45;48.05
44453;BME280;30155;52.164;21.236;2023-03-14T12:33:43;98492.08;;;16.47;48.25
44453;BME280;30155;52.164;21.236;2023-03-14T12:43:33;98491.09;;;16.95;47.97
44453;BME280;30155;52.164;21.236;2023-03-14T12:48:27;98488.67;;;16.41;48.02
44453;BME280;30155;52.164;21.236;2023-03-14T12:58:36;98475.80;;;16.19;49.04
44453;BME280;30155;52.164;21.236;2023-03-14T13:04:10;98485.48;;;16.00;49.31
44453;BME280;30155;52.164;21.236;2023-03-14T13:14:23;98495.00;;;15.48;49.96
44453;BME280;30155;52.164;21.236;2023-03-14T13:19:23;98502.59;;;15.13;50.56
44453;BME280;30155;52.164;21.236;2023-03-14T13:24:26;98507.36;;;14.92;51.10
44453;BME280;30155;52.164;21.236;2023-03-14T13:29:21;98517.95;;;14.74;52.01
44453;BME280;30155;52.164;21.236;2023-03-14T13:34:15;98530.30;;;14.60;53.21
44453;BME280;30155;52.164;21.236;2023-03-14T13:39:20;98533.72;;;14.45;54.09
44453;BME280;30155;52.164;21.236;2023-03-14T13:44:34;98538.17;;;14.27;55.23
44453;BME280;30155;52.164;21.236;2023-03-14T13:49:30;98541.19;;;13.92;55.74
44453;BME280;30155;52.164;21.236;2023-03-14T13:54:26;98549.23;;;13.57;56.41
44453;BME280;30155;52.164;21.236;2023-03-14T13:59:28;98551.09;;;13.35;57.39
44453;BME280;30155;52.164;21.236;2023-03-14T14:04:23;98554.98;;;13.19;58.28
44453;BME280;30155;52.164;21.236;2023-03-14T14:09:24;98564.02;;;13.00;58.99
44453;BME280;30155;52.164;21.236;2023-03-14T14:19:34;98551.17;;;12.61;60.62
44453;BME280;30155;52.164;21.236;2023-03-14T14:24:31;98542.48;;;12.47;61.17
44453;BME280;30155;52.164;21.236;2023-03-14T14:29:29;98542.48;;;12.33;61.90
44453;BME280;30155;52.164;21.236;2023-03-14T14:34:23;98545.52;;;12.22;62.89
44453;BME280;30155;52.164;21.236;2023-03-14T14:39:23;98534.30;;;12.13;63.51
44453;BME280;30155;52.164;21.236;2023-03-14T14:44:32;98528.31;;;12.01;64.09
44453;BME280;30155;52.164;21.236;2023-03-14T14:49:31;98519.35;;;11.90;64.85
44453;BME280;30155;52.164;21.236;2023-03-14T14:54:38;98521.83;;;11.80;65.31
44453;BME280;30155;52.164;21.236;2023-03-14T14:59:41;98519.86;;;11.68;65.73
44453;BME280;30155;52.164;21.236;2023-03-14T15:04:35;98505.46;;;11.60;66.09
44453;BME280;30155;52.164;21.236;2023-03-14T15:09:28;98496.37;;;11.55;66.71
44453;BME280;30155;52.164;21.236;2023-03-14T15:14:21;98502.80;;;11.46;67.12
44453;BME280;30155;52.164;21.236;2023-03-14T15:19:21;98511.44;;;11.40;67.21
44453;BME280;30155;52.164;21.236;2023-03-14T15:24:16;98539.60;;;11.36;67.69
44453;BME280;30155;52.164;21.236;2023-03-14T15:29:11;98559.64;;;11.33;67.74
44453;BME280;30155;52.164;21.236;2023-03-14T15:34:04;98572.63;;;11.25;67.59
44453;BME280;30155;52.164;21.236;2023-03-14T15:38:58;98556.67;;;11.16;67.52
44453;BME280;30155;52.164;21.236;2023-03-14T15:43:52;98558.17;;;11.11;67.64
44453;BME280;30155;52.164;21.236;2023-03-14T15:48:45;98551.95;;;11.10;67.87
44453;BME280;30155;52.164;21.236;2023-03-14T15:53:39;98544.23;;;11.05;67.76
44453;BME280;30155;52.164;21.236;2023-03-14T15:58:34;98550.48;;;10.96;67.92
44453;BME280;30155;52.164;21.236;2023-03-14T16:03:28;98554.88;;;10.92;68.23
44453;BME280;30155;52.164;21.236;2023-03-14T16:08:25;98574.19;;;10.89;68.21
44453;BME280;30155;52.164;21.236;2023-03-14T16:13:20;98584.19;;;10.82;68.55
44453;BME280;30155;52.164;21.236;2023-03-14T16:18:13;98584.08;;;10.78;68.61
44453;BME280;30155;52.164;21.236;2023-03-14T16:23:12;98588.63;;;10.76;68.61
44453;BME280;30155;52.164;21.236;2023-03-14T16:28:06;98576.33;;;10.77;68.66
44453;BME280;30155;52.164;21.236;2023-03-14T16:33:02;98575.16;;;10.73;68.93
44453;BME280;30155;52.164;21.236;2023-03-14T16:38:03;98580.12;;;10.67;68.81
44453;BME280;30155;52.164;21.236;2023-03-14T16:42:56;98577.77;;;10.62;68.93
44453;BME280;30155;52.164;21.236;2023-03-14T16:48:06;98573.33;;;10.59;69.18
44453;BME280;30155;52.164;21.236;2023-03-14T16:52:59;98590.73;;;10.55;69.32
44453;BME280;30155;52.164;21.236;2023-03-14T16:57:52;98596.83;;;10.52;69.34
44453;BME280;30155;52.164;21.236;2023-03-14T17:02:45;98595.14;;;10.50;69.40
44453;BME280;30155;52.164;21.236;2023-03-14T17:07:38;98581.46;;;10.50;69.56
44453;BME280;30155;52.164;21.236;2023-03-14T17:12:31;98569.34;;;10.49;69.66
44453;BME280;30155;52.164;21.236;2023-03-14T17:17:24;98579.96;;;10.46;69.80
44453;BME280;30155;52.164;21.236;2023-03-14T17:22:18;98581.73;;;10.44;69.71
44453;BME280;30155;52.164;21.236;2023-03-14T17:27:16;98582.79;;;10.42;69.80
44453;BME280;30155;52.164;21.236;2023-03-14T17:32:11;98590.43;;;10.41;69.89
44453;BME280;30155;52.164;21.236;2023-03-14T17:37:04;98591.85;;;10.39;69.71
44453;BME280;30155;52.164;21.236;2023-03-14T17:41:57;98595.18;;;10.37;69.78
44453;BME280;30155;52.164;21.236;2023-03-14T17:46:50;98595.23;;;10.34;69.91
44453;BME280;30155;52.164;21.236;2023-03-14T17:51:43;98585.20;;;10.31;69.91
44453;BME280;30155;52.164;21.236;2023-03-14T17:56:36;98594.42;;;10.28;70.05
44453;BME280;30155;52.164;21.236;2023-03-14T18:01:29;98599.52;;;10.23;70.07
44453;BME280;30155;52.164;21.236;2023-03-14T18:06:22;98600.08;;;10.21;70.21
44453;BME280;30155;52.164;21.236;2023-03-14T18:11:17;98611.16;;;10.21;70.28
44453;BME280;30155;52.164;21.236;2023-03-14T18:16:11;98617.40;;;10.20;70.25
44453;BME280;30155;52.164;21.236;2023-03-14T18:21:05;98619.99;;;10.20;70.26
44453;BME280;30155;52.164;21.236;2023-03-14T18:25:59;98616.54;;;10.20;70.38
44453;BME280;30155;52.164;21.236;2023-03-14T18:30:52;98618.45;;;10.18;70.40
44453;BME280;30155;52.164;21.236;2023-03-14T18:35:45;98618.31;;;10.18;70.34
44453;BME280;30155;52.164;21.236;2023-03-14T18:40:39;98618.61;;;10.20;70.40
44453;BME280;30155;52.164;21.236;2023-03-14T18:45:32;98622.79;;;10.19;70.35
44453;BME280;30155;52.164;21.236;2023-03-14T18:50:25;98622.62;;;10.18;70.21
44453;BME280;30155;52.164;21.236;2023-03-14T18:55:19;98619.73;;;10.14;70.02
44453;BME280;30155;52.164;21.236;2023-03-14T19:00:12;98624.20;;;10.05;70.19
44453;BME280;30155;52.164;21.236;2023-03-14T19:05:07;98629.41;;;9.90;70.25
44453;BME280;30155;52.164;21.236;2023-03-14T19:10:00;98641.98;;;9.82;70.31
44453;BME280;30155;52.164;21.236;2023-03-14T19:14:53;98648.03;;;9.71;70.41
44453;BME280;30155;52.164;21.236;2023-03-14T19:19:46;98649.31;;;9.64;70.48
44453;BME280;30155;52.164;21.236;2023-03-14T19:24:39;98647.16;;;9.56;70.59
44453;BME280;30155;52.164;21.236;2023-03-14T19:29:32;98643.63;;;9.48;70.61
44453;BME280;30155;52.164;21.236;2023-03-14T19:34:29;98646.64;;;9.40;70.81
44453;BME280;30155;52.164;21.236;2023-03-14T19:39:22;98646.05;;;9.33;70.78
44453;BME280;30155;52.164;21.236;2023-03-14T19:44:15;98644.61;;;9.21;71.04
44453;BME280;30155;52.164;21.236;2023-03-14T19:49:08;98647.65;;;9.12;71.04
44453;BME280;30155;52.164;21.236;2023-03-14T19:54:02;98647.33;;;9.09;71.17
44453;BME280;30155;52.164;21.236;2023-03-14T19:58:55;98652.09;;;9.00;71.17
44453;BME280;30155;52.164;21.236;2023-03-14T20:03:48;98649.74;;;8.92;71.51
44453;BME280;30155;52.164;21.236;2023-03-14T20:08:41;98650.65;;;8.87;71.69
44453;BME280;30155;52.164;21.236;2023-03-14T20:13:36;98650.20;;;8.79;71.59
44453;BME280;30155;52.164;21.236;2023-03-14T20:18:29;98649.98;;;8.66;71.64
44453;BME280;30155;52.164;21.236;2023-03-14T20:23:23;98651.14;;;8.50;71.60
44453;BME280;30155;52.164;21.236;2023-03-14T20:28:16;98656.55;;;8.37;72.06
44453;BME280;30155;52.164;21.236;2023-03-14T20:33:09;98663.02;;;8.26;72.37
44453;BME280;30155;52.164;21.236;2023-03-14T20:38:03;98666.85;;;8.18;72.45
44453;BME280;30155;52.164;21.236;2023-03-14T20:42:56;98665.90;;;8.06;72.21
44453;BME280;30155;52.164;21.236;2023-03-14T20:47:49;98660.44;;;7.95;72.74
44453;BME280;30155;52.164;21.236;2023-03-14T20:52:42;98660.42;;;7.94;72.96
44453;BME280;30155;52.164;21.236;2023-03-14T20:57:36;98664.94;;;7.90;72.82
44453;BME280;30155;52.164;21.236;2023-03-14T21:02:28;98666.70;;;7.82;73.01
44453;BME280;30155;52.164;21.236;2023-03-14T21:07:39;98671.05;;;7.73;73.04
44453;BME280;30155;52.164;21.236;2023-03-14T21:12:34;98670.20;;;7.71;73.35
44453;BME280;30155;52.164;21.236;2023-03-14T21:17:26;98665.40;;;7.67;73.45
44453;BME280;30155;52.164;21.236;2023-03-14T21:22:23;98667.30;;;7.67;73.71
44453;BME280;30155;52.164;21.236;2023-03-14T21:27:17;98666.80;;;7.63;73.77
44453;BME280;30155;52.164;21.236;2023-03-14T21:32:10;98671.11;;;7.59;74.15
44453;BME280;30155;52.164;21.236;2023-03-14T21:37:03;98671.13;;;7.55;73.82
44453;BME280;30155;52.164;21.236;2023-03-14T21:41:56;98664.42;;;7.53;74.19
44453;BME280;30155;52.164;21.236;2023-03-14T21:46:49;98663.72;;;7.53;74.29
44453;BME280;30155;52.164;21.236;2023-03-14T21:51:43;98669.59;;;7.54;74.42
44453;BME280;30155;52.164;21.236;2023-03-14T21:56:37;98674.08;;;7.51;74.42
44453;BME280;30155;52.164;21.236;2023-03-14T22:01:30;98684.44;;;7.45;74.32
44453;BME280;30155;52.164;21.236;2023-03-14T22:06:23;98678.77;;;7.41;74.41
44453;BME280;30155;52.164;21.236;2023-03-14T22:11:16;98681.02;;;7.36;74.72
44453;BME280;30155;52.164;21.236;2023-03-14T22:16:09;98683.24;;;7.40;75.00
44453;BME280;30155;52.164;21.236;2023-03-14T22:21:02;98691.83;;;7.51;75.14
44453;BME280;30155;52.164;21.236;2023-03-14T22:25:55;98691.61;;;7.64;75.30
44453;BME280;30155;52.164;21.236;2023-03-14T22:30:49;98686.21;;;7.79;75.11
44453;BME280;30155;52.164;21.236;2023-03-14T22:35:47;98691.35;;;7.88;75.07
44453;BME280;30155;52.164;21.236;2023-03-14T22:40:40;98701.13;;;8.00;75.34
44453;BME280;30155;52.164;21.236;2023-03-14T22:45:33;98695.71;;;8.12;75.28
44453;BME280;30155;52.164;21.236;2023-03-14T22:50:26;98696.70;;;8.21;75.15
44453;BME280;30155;52.164;21.236;2023-03-14T22:55:19;98690.27;;;8.28;75.11
44453;BME280;30155;52.164;21.236;2023-03-14T23:00:12;98698.70;;;8.33;75.14
44453;BME280;30155;52.164;21.236;2023-03-14T23:05:07;98704.70;;;8.38;75.22
44453;BME280;30155;52.164;21.236;2023-03-14T23:10:01;98703.34;;;8.42;74.82
44453;BME280;30155;52.164;21.236;2023-03-14T23:14:54;98705.38;;;8.47;74.86
44453;BME280;30155;52.164;21.236;2023-03-14T23:19:47;98710.20;;;8.50;74.97
44453;BME280;30155;52.164;21.236;2023-03-14T23:24:40;98716.02;;;8.54;74.89
44453;BME280;30155;52.164;21.236;2023-03-14T23:29:40;98721.71;;;8.56;75.01
44453;BME280;30155;52.164;21.236;2023-03-14T23:34:33;98733.28;;;8.57;75.01
44453;BME280;30155;52.164;21.236;2023-03-14T23:39:28;98745.17;;;8.60;74.94
44453;BME280;30155;52.164;21.236;2023-03-14T23:44:22;98753.98;;;8.64;74.88
44453;BME280;30155;52.164;21.236;2023-03-14T23:49:18;98753.94;;;8.67;74.93
44453;BME280;30155;52.164;21.236;2023-03-14T23:54:11;98757.38;;;8.69;75.24
44453;BME280;30155;52.164;21.236;2023-03-14T23:59:04;98765.13;;;8.73;75.31
